Terminal Aerodrome Forecast
Issued by NWS Cleveland, OH

Home | Current Version | Previous Version | Graphics & Text | Print | Product List | Glossary On
Versions: 1 2 3 4 5 6 7 8 9 10 11 12 13 14 15 16 17 18 19 20 21 22 23 24 25 26 27 28 29 30 31 32
899
FTUS41 KCLE 192344
TAFCLE
TAF
KCLE 192344Z 2000/2106 16005KT P6SM OVC250
     FM200800 10007KT P6SM OVC100
     FM201000 09008KT P6SM OVC035
     FM201100 10009KT 6SM -RA BR OVC035
     FM201300 13009KT 4SM -RA BR OVC005
     FM201800 21008KT 4SM -RA BR OVC005
     FM201900 22006KT P6SM OVC007
     FM210300 17005KT P6SM OVC015=

USA.gov is the U.S. government's official web portal to all federal, state and local government web resources and services.